メインページ
METAR-TAF:

METAR-TAF

空港 :

Grosse Ile Municipal Airport

デトロイト / Grosse Ile, ミシガン州, アメリカ合衆国

緯度: 42-05-55N, 経度: 083-09-40W, 海抜: 180m

現時点の気象観測

当レポートは24分前の07:35(UTC)に作成
南/南東の風 5kt
気温 5°C
湿度 87%
気圧 1015 hPa
視程: 16.1km
高度9000ftの曇り

METAR: KONZ 250735Z AUTO 16005KT 10SM OVC090 05/03 A2997 RMK AO2 T00530030

時間: 02:59 (07:59 UTC)


TAF: 見つかりません

4,000以上の空港の気象観測と天気予報(METAR報とTAF報)

利用可能な観測所は地図上に黄色い丸と赤い丸で示す。

丸の上にカーソルを重ねると観測所名を参照できる。

次にクリックすると気象観測と天気予報を参照できる。

マップの切り替え:黒色「×」印の緑ボタンをクリックして拡大、「-」印の緑ボタンをクリックして縮小、緑色の三角印をクリックして隣りの地図に切り替え


METAR-TAF: